Time;durP1;ratioP1;P1;durP2;ratioP2;P2;SDS_P1;SDS_P2;PMS_P1;PMS_P2;Temp;Humidity;BMP_temperature;BMP_pressure;BME280_temperature;BME280_humidity;BME280_pressure;Samples;Min_cycle;Max_cycle;Signal;HPM_P1;HPM_P2
2022/11/16 00:01:21;;;;;;;0.30;0.30;;;7.80;99.90;;;;;;4943660;28;20515;-85
2022/11/16 00:03:46;;;;;;;0.20;0.20;;;7.80;99.90;;;;;;4955165;28;20191;-84
2022/11/16 00:06:13;;;;;;;0.30;0.30;;;7.80;99.90;;;;;;4945203;28;20497;-85
2022/11/16 00:08:42;;;;;;;0.30;0.30;;;7.70;99.90;;;;;;4950668;28;20562;-84
2022/11/16 00:11:14;;;;;;;0.20;0.20;;;7.70;99.90;;;;;;4945324;28;20450;-85
2022/11/16 00:13:41;;;;;;;0.30;0.30;;;7.70;99.90;;;;;;4947975;29;20446;-86
2022/11/16 00:16:11;;;;;;;0.30;0.30;;;7.70;99.90;;;;;;4944161;28;20474;-84
2022/11/16 00:18:37;;;;;;;0.30;0.30;;;7.70;99.90;;;;;;4951501;28;20529;-84
2022/11/16 00:21:04;;;;;;;0.30;0.30;;;7.70;99.90;;;;;;4946968;28;20485;-85
2022/11/16 00:23:30;;;;;;;0.30;0.30;;;7.70;99.90;;;;;;4952936;28;20187;-83
2022/11/16 00:26:02;;;;;;;0.20;0.20;;;7.70;99.90;;;;;;4947763;28;20957;-86
2022/11/16 00:28:28;;;;;;;0.30;0.30;;;7.70;99.90;;;;;;4951874;28;20441;-86
2022/11/16 00:30:58;;;;;;;0.30;0.30;;;7.70;99.90;;;;;;4956563;28;20465;-85
2022/11/16 00:33:24;;;;;;;0.20;0.20;;;7.70;99.90;;;;;;4945826;28;20497;-86
2022/11/16 00:35:49;;;;;;;0.20;0.20;;;7.70;99.90;;;;;;4961517;28;20552;-84
2022/11/16 00:38:15;;;;;;;0.30;0.30;;;7.70;99.90;;;;;;4952472;28;20585;-84
2022/11/16 00:40:40;;;;;;;0.20;0.20;;;7.70;99.90;;;;;;4938859;28;20286;-85
2022/11/16 00:43:05;;;;;;;0.30;0.30;;;7.70;99.90;;;;;;4946976;29;20674;-85
2022/11/16 00:45:31;;;;;;;0.30;0.30;;;7.70;99.90;;;;;;4944061;28;20257;-85
2022/11/16 00:47:56;;;;;;;0.30;0.30;;;7.70;99.90;;;;;;4955384;28;20270;-85
2022/11/16 00:50:22;;;;;;;0.30;0.30;;;7.70;99.90;;;;;;4939466;28;20198;-85
2022/11/16 00:52:47;;;;;;;0.30;0.30;;;7.70;99.90;;;;;;4952985;28;20194;-85
2022/11/16 00:55:13;;;;;;;0.30;0.30;;;7.70;99.90;;;;;;4957437;28;20197;-84
2022/11/16 00:57:38;;;;;;;0.30;0.30;;;7.80;99.90;;;;;;4949404;28;20191;-84
2022/11/16 01:00:04;;;;;;;0.30;0.30;;;7.80;99.90;;;;;;4952107;28;20248;-84
2022/11/16 01:02:30;;;;;;;0.30;0.30;;;7.80;99.90;;;;;;4948173;28;20765;-85
2022/11/16 01:04:55;;;;;;;0.30;0.30;;;7.80;99.90;;;;;;4959601;28;20519;-84
2022/11/16 01:07:21;;;;;;;0.30;0.30;;;7.80;99.90;;;;;;4947177;28;20234;-84
2022/11/16 01:09:46;;;;;;;0.20;0.20;;;7.80;99.90;;;;;;4954412;28;20623;-85
2022/11/16 01:12:12;;;;;;;0.30;0.30;;;7.80;99.90;;;;;;4952748;28;20254;-86
2022/11/16 01:14:40;;;;;;;0.30;0.30;;;7.80;99.90;;;;;;4949776;28;20174;-83
2022/11/16 01:17:06;;;;;;;0.30;0.30;;;7.80;99.90;;;;;;4943485;28;20769;-85
2022/11/16 01:19:31;;;;;;;0.30;0.30;;;7.80;99.90;;;;;;4946811;28;20459;-84
2022/11/16 01:21:57;;;;;;;0.20;0.20;;;7.80;99.90;;;;;;4945865;28;20970;-85
2022/11/16 01:24:25;;;;;;;0.30;0.30;;;7.80;99.90;;;;;;4948047;28;21089;-84
2022/11/16 01:26:50;;;;;;;0.20;0.20;;;7.80;99.90;;;;;;4954639;28;20908;-85
2022/11/16 01:29:16;;;;;;;0.30;0.30;;;7.80;99.90;;;;;;4947665;28;20454;-85
2022/11/16 01:31:41;;;;;;;0.30;0.30;;;7.80;99.90;;;;;;4952698;28;20199;-85
2022/11/16 01:34:07;;;;;;;0.30;0.30;;;7.80;99.90;;;;;;4959991;28;20191;-86
2022/11/16 01:36:35;;;;;;;0.30;0.30;;;7.80;99.90;;;;;;4947172;28;20325;-86
2022/11/16 01:39:01;;;;;;;0.30;0.30;;;7.80;99.90;;;;;;4952851;28;20238;-85
2022/11/16 01:41:27;;;;;;;0.30;0.30;;;7.80;99.90;;;;;;4959355;28;20457;-84
2022/11/16 01:44:31;;;;;;;0.20;0.20;;;7.80;99.90;;;;;;4947634;28;20803;-85
2022/11/16 01:46:58;;;;;;;0.30;0.30;;;7.80;99.90;;;;;;4961084;28;20490;-84
2022/11/16 01:49:26;;;;;;;0.30;0.30;;;7.80;99.90;;;;;;4951942;28;20434;-85
2022/11/16 01:51:57;;;;;;;0.23;0.23;;;7.90;99.90;;;;;;4947465;28;20501;-84
2022/11/16 01:54:23;;;;;;;0.30;0.30;;;7.80;99.90;;;;;;4946959;29;20497;-85
2022/11/16 01:56:50;;;;;;;0.30;0.30;;;7.80;99.90;;;;;;4954601;28;20823;-85
2022/11/16 01:59:16;;;;;;;0.30;0.30;;;7.80;99.90;;;;;;4948846;28;20481;-86
2022/11/16 02:01:42;;;;;;;0.30;0.30;;;7.80;99.90;;;;;;4951848;28;20489;-84
2022/11/16 02:04:11;;;;;;;0.30;0.30;;;7.80;99.90;;;;;;4953498;28;20442;-86
2022/11/16 02:06:59;;;;;;;0.30;0.30;;;7.80;99.90;;;;;;4947906;28;20226;-84
2022/11/16 02:09:57;;;;;;;0.30;0.30;;;7.80;99.90;;;;;;4953948;28;20446;-85
2022/11/16 02:12:54;;;;;;;0.30;0.30;;;7.80;99.90;;;;;;4946521;28;20576;-86
2022/11/16 02:15:24;;;;;;;0.30;0.30;;;7.80;99.90;;;;;;4985507;28;20527;-85
2022/11/16 02:18:25;;;;;;;0.30;0.30;;;7.80;99.90;;;;;;4952579;28;20454;-84
2022/11/16 02:21:19;;;;;;;0.30;0.30;;;7.70;99.90;;;;;;4941394;28;20603;-84
2022/11/16 02:24:22;;;;;;;0.30;0.30;;;7.80;99.90;;;;;;4945686;28;20469;-84
2022/11/16 02:26:54;;;;;;;0.30;0.30;;;7.70;99.90;;;;;;4949283;28;20497;-85
2022/11/16 02:29:32;;;;;;;0.30;0.30;;;7.70;99.90;;;;;;4950907;28;20497;-85
2022/11/16 02:32:11;;;;;;;0.30;0.30;;;7.70;99.90;;;;;;4949899;28;20458;-86
2022/11/16 02:34:46;;;;;;;0.30;0.30;;;7.70;99.90;;;;;;4961379;28;20890;-85
2022/11/16 02:37:16;;;;;;;0.30;0.30;;;7.70;99.90;;;;;;4943507;28;20962;-85
2022/11/16 02:39:45;;;;;;;0.30;0.30;;;7.70;99.90;;;;;;4938472;28;20474;-84
2022/11/16 02:42:17;;;;;;;0.30;0.30;;;7.70;99.90;;;;;;4947222;28;20454;-85
2022/11/16 02:44:48;;;;;;;0.30;0.30;;;7.70;99.90;;;;;;4951350;28;21003;-85
2022/11/16 02:47:22;;;;;;;0.30;0.30;;;7.70;99.90;;;;;;4955825;28;20555;-86
2022/11/16 02:49:53;;;;;;;0.30;0.30;;;7.70;99.90;;;;;;4944374;28;20446;-85
2022/11/16 02:52:22;;;;;;;0.30;0.30;;;7.70;99.90;;;;;;4962489;28;20524;-84
2022/11/16 02:54:47;;;;;;;0.30;0.30;;;7.70;99.90;;;;;;4950769;28;20485;-84
2022/11/16 02:57:36;;;;;;;0.30;0.30;;;7.60;99.90;;;;;;4948763;28;20494;-85
2022/11/16 03:00:04;;;;;;;0.30;0.30;;;7.60;99.90;;;;;;4944632;28;20268;-85
2022/11/16 03:03:19;;;;;;;0.20;0.20;;;7.60;99.90;;;;;;4947164;28;20843;-84
2022/11/16 03:05:56;;;;;;;0.30;0.30;;;7.60;99.90;;;;;;4948348;28;20478;-84
2022/11/16 03:08:30;;;;;;;0.30;0.30;;;7.60;99.90;;;;;;4949795;28;20457;-85
2022/11/16 03:14:00;;;;;;;0.30;0.30;;;7.60;99.90;;;;;;4948107;28;20854;-84
2022/11/16 03:16:31;;;;;;;0.30;0.30;;;7.60;99.90;;;;;;4950088;28;20442;-85
2022/11/16 03:19:01;;;;;;;0.30;0.30;;;7.60;99.90;;;;;;4949627;28;20799;-83
2022/11/16 03:21:38;;;;;;;0.30;0.30;;;7.70;99.90;;;;;;4950811;28;20521;-85
2022/11/16 03:24:05;;;;;;;0.30;0.30;;;7.70;99.90;;;;;;4944958;28;20450;-84
2022/11/16 03:26:43;;;;;;;0.30;0.30;;;7.60;99.90;;;;;;4955810;28;21217;-84
2022/11/16 03:29:19;;;;;;;0.30;0.30;;;7.60;99.90;;;;;;4949398;28;20454;-83
2022/11/16 03:31:49;;;;;;;0.30;0.30;;;7.60;99.90;;;;;;4950571;28;20523;-83
2022/11/16 03:34:17;;;;;;;0.30;0.30;;;7.60;99.90;;;;;;4945294;28;20508;-83
2022/11/16 03:36:45;;;;;;;0.30;0.30;;;7.60;99.90;;;;;;4951115;28;20809;-83
2022/11/16 03:39:24;;;;;;;0.30;0.30;;;7.60;99.90;;;;;;4910197;28;1046912;-84
2022/11/16 03:41:51;;;;;;;0.30;0.30;;;7.60;99.90;;;;;;4945139;28;20200;-84
2022/11/16 03:44:18;;;;;;;0.30;0.30;;;7.60;99.90;;;;;;4945859;28;20917;-85
2022/11/16 03:46:45;;;;;;;0.30;0.30;;;7.60;99.90;;;;;;4952679;28;20575;-84
2022/11/16 03:49:11;;;;;;;0.30;0.30;;;7.60;99.90;;;;;;4949985;28;20468;-84
2022/11/16 03:51:37;;;;;;;0.30;0.30;;;7.60;99.90;;;;;;4939012;28;20451;-84
2022/11/16 03:54:02;;;;;;;0.30;0.30;;;7.60;99.90;;;;;;4957785;28;20194;-85
2022/11/16 03:56:28;;;;;;;0.20;0.20;;;7.60;99.90;;;;;;4948134;28;20820;-83
2022/11/16 03:58:54;;;;;;;0.27;0.27;;;7.60;99.90;;;;;;4955732;28;20226;-84
2022/11/16 04:01:19;;;;;;;0.30;0.30;;;7.60;99.90;;;;;;4953162;28;20197;-85
2022/11/16 04:03:45;;;;;;;0.30;0.30;;;7.60;99.90;;;;;;4949922;28;20683;-84
2022/11/16 04:24:11;;;;;;;0.30;0.30;;;7.60;99.90;;;;;;4955179;28;20282;-83
2022/11/16 04:25:59;;;;;;;0.30;0.30;;;7.60;99.90;;;;;;4944851;28;20560;-84
2022/11/16 04:28:30;;;;;;;0.23;0.23;;;7.60;99.90;;;;;;4950113;28;20449;-83
2022/11/16 04:39:11;;;;;;;0.30;0.30;;;7.60;99.90;;;;;;4955354;28;20485;-84
2022/11/16 04:44:20;;;;;;;0.20;0.20;;;7.60;99.90;;;;;;4941958;28;20213;-83
2022/11/16 04:49:30;;;;;;;0.30;0.30;;;7.50;99.90;;;;;;4955762;28;20255;-83
2022/11/16 04:51:56;;;;;;;0.30;0.30;;;7.60;99.90;;;;;;4950046;28;20462;-85
2022/11/16 04:54:21;;;;;;;0.30;0.30;;;7.60;99.90;;;;;;4954438;28;20583;-84
2022/11/16 04:56:47;;;;;;;0.30;0.30;;;7.60;99.90;;;;;;4946760;28;20659;-85
2022/11/16 04:59:13;;;;;;;0.30;0.30;;;7.50;99.90;;;;;;4955929;28;20187;-84
2022/11/16 05:04:22;;;;;;;0.30;0.30;;;7.60;99.90;;;;;;4948450;29;20197;-84
2022/11/16 05:06:48;;;;;;;0.30;0.30;;;7.50;99.90;;;;;;4948948;28;20494;-84
2022/11/16 05:09:14;;;;;;;0.30;0.30;;;7.50;99.90;;;;;;4951149;28;20226;-84
2022/11/16 05:11:40;;;;;;;0.30;0.30;;;7.60;99.90;;;;;;4947044;28;20655;-84
2022/11/16 05:14:07;;;;;;;0.30;0.30;;;7.60;99.90;;;;;;4943033;28;20447;-84
2022/11/16 05:16:32;;;;;;;0.30;0.30;;;7.50;99.90;;;;;;4950473;28;20203;-85
2022/11/16 05:21:42;;;;;;;0.30;0.30;;;7.50;99.90;;;;;;4949855;28;20230;-84
2022/11/16 05:26:52;;;;;;;0.30;0.30;;;7.40;99.90;;;;;;4949269;28;20307;-84
2022/11/16 05:29:18;;;;;;;0.30;0.30;;;7.40;99.90;;;;;;4955068;28;20904;-84
2022/11/16 05:31:43;;;;;;;0.30;0.30;;;7.40;99.90;;;;;;4950446;28;20195;-85
2022/11/16 05:34:09;;;;;;;0.30;0.30;;;7.40;99.90;;;;;;4954634;28;20214;-84
2022/11/16 05:36:34;;;;;;;0.30;0.30;;;7.40;99.90;;;;;;4955449;28;20252;-85
2022/11/16 05:39:00;;;;;;;0.30;0.30;;;7.40;99.90;;;;;;4937562;29;20234;-84
2022/11/16 05:41:25;;;;;;;0.30;0.30;;;7.30;99.90;;;;;;4944906;28;20194;-84
2022/11/16 05:43:51;;;;;;;0.30;0.30;;;7.40;99.90;;;;;;4953084;28;20198;-85
2022/11/16 05:46:16;;;;;;;0.30;0.30;;;7.30;99.90;;;;;;4950395;28;20669;-83
2022/11/16 05:48:42;;;;;;;0.30;0.30;;;7.30;99.90;;;;;;4948385;28;20194;-86
2022/11/16 05:51:07;;;;;;;0.30;0.30;;;7.20;99.90;;;;;;4951207;28;20207;-85
2022/11/16 05:53:33;;;;;;;0.27;0.27;;;7.10;99.90;;;;;;4953276;28;20190;-85
2022/11/16 05:55:58;;;;;;;0.30;0.30;;;7.20;99.90;;;;;;4949486;28;20198;-86
2022/11/16 05:58:24;;;;;;;0.30;0.30;;;7.20;99.90;;;;;;4944575;28;20190;-85
2022/11/16 06:00:50;;;;;;;0.30;0.30;;;7.10;99.90;;;;;;4956073;28;20293;-85
2022/11/16 06:03:15;;;;;;;0.30;0.30;;;7.20;99.90;;;;;;4951783;28;20194;-85
2022/11/16 06:05:44;;;;;;;0.30;0.30;;;7.20;99.90;;;;;;4948773;28;20580;-86
2022/11/16 06:08:09;;;;;;;0.30;0.30;;;7.20;99.90;;;;;;4948641;28;20486;-87
2022/11/16 06:10:35;;;;;;;0.30;0.30;;;7.20;99.90;;;;;;4955169;28;20473;-86
2022/11/16 06:13:01;;;;;;;0.30;0.30;;;7.20;99.90;;;;;;4939130;29;20843;-86
2022/11/16 06:15:27;;;;;;;0.40;0.40;;;7.20;99.90;;;;;;4946315;28;20452;-85
2022/11/16 06:17:52;;;;;;;0.30;0.30;;;7.20;99.90;;;;;;4954293;28;20195;-84
2022/11/16 06:20:18;;;;;;;0.30;0.30;;;7.20;99.90;;;;;;4950252;28;20666;-85
2022/11/16 06:22:43;;;;;;;0.30;0.30;;;7.20;99.90;;;;;;4949042;28;20202;-85
2022/11/16 06:25:09;;;;;;;0.30;0.30;;;7.20;99.90;;;;;;4947933;29;20542;-83
2022/11/16 06:27:38;;;;;;;0.30;0.30;;;7.20;99.90;;;;;;4953388;28;20566;-84
2022/11/16 06:30:05;;;;;;;0.30;0.30;;;7.20;99.90;;;;;;4947818;28;20473;-83
2022/11/16 06:32:30;;;;;;;0.30;0.30;;;7.20;99.90;;;;;;4940247;28;20459;-83
2022/11/16 06:34:56;;;;;;;0.30;0.30;;;7.20;99.90;;;;;;4941074;28;20447;-83
2022/11/16 06:37:21;;;;;;;0.30;0.30;;;7.20;99.90;;;;;;4938832;28;22579;-82
2022/11/16 06:39:47;;;;;;;0.30;0.30;;;7.20;99.90;;;;;;4946889;28;20752;-84
2022/11/16 06:42:12;;;;;;;0.30;0.30;;;7.20;99.90;;;;;;4945532;28;20261;-84
2022/11/16 06:44:37;;;;;;;0.30;0.30;;;7.20;99.90;;;;;;4947725;28;20674;-85
2022/11/16 06:47:03;;;;;;;0.30;0.30;;;7.20;99.90;;;;;;4946302;28;20364;-84
2022/11/16 06:49:29;;;;;;;0.30;0.30;;;7.20;99.90;;;;;;4949307;28;20651;-84
2022/11/16 06:51:54;;;;;;;0.30;0.30;;;7.20;99.90;;;;;;4930410;28;20557;-84
2022/11/16 06:54:20;;;;;;;0.30;0.30;;;7.20;99.90;;;;;;4944022;28;20194;-84
2022/11/16 06:56:45;;;;;;;0.30;0.30;;;7.20;99.90;;;;;;4948705;28;20609;-83
2022/11/16 06:59:11;;;;;;;0.30;0.30;;;7.30;99.90;;;;;;4946976;28;20225;-84
2022/11/16 07:01:36;;;;;;;0.23;0.23;;;7.20;99.90;;;;;;4953655;28;20230;-82
2022/11/16 07:04:02;;;;;;;0.30;0.30;;;7.20;99.90;;;;;;4952866;28;20710;-84
2022/11/16 07:06:28;;;;;;;0.30;0.30;;;7.30;99.90;;;;;;4949565;29;20230;-85
2022/11/16 07:08:54;;;;;;;0.30;0.30;;;7.30;99.90;;;;;;4947978;28;20536;-83
2022/11/16 07:11:19;;;;;;;0.30;0.30;;;7.30;99.90;;;;;;4948232;28;20544;-84
2022/11/16 07:13:44;;;;;;;0.30;0.30;;;7.30;99.90;;;;;;4951457;28;20234;-85
2022/11/16 07:16:10;;;;;;;0.30;0.30;;;7.30;99.90;;;;;;4950756;28;20276;-84
2022/11/16 07:18:38;;;;;;;0.30;0.30;;;7.40;99.90;;;;;;4946813;28;20799;-83
2022/11/16 07:21:08;;;;;;;0.30;0.30;;;7.30;99.90;;;;;;4945459;28;20484;-84
2022/11/16 07:23:34;;;;;;;0.30;0.30;;;7.30;99.90;;;;;;4946339;29;20457;-84
2022/11/16 07:26:02;;;;;;;0.30;0.30;;;7.30;99.90;;;;;;4950632;28;20867;-85
2022/11/16 07:28:28;;;;;;;0.30;0.30;;;7.30;99.90;;;;;;4946615;28;20438;-84
2022/11/16 07:30:54;;;;;;;0.30;0.30;;;7.30;99.90;;;;;;4955686;28;20438;-84
2022/11/16 07:33:20;;;;;;;0.30;0.30;;;7.40;99.90;;;;;;4946717;28;20454;-85
2022/11/16 07:35:45;;;;;;;0.30;0.30;;;7.30;99.90;;;;;;4951196;28;20453;-84
2022/11/16 07:38:11;;;;;;;0.30;0.30;;;7.40;99.90;;;;;;4956527;28;20688;-85
2022/11/16 07:40:36;;;;;;;0.30;0.30;;;7.40;99.90;;;;;;4944365;28;20220;-84
2022/11/16 07:43:02;;;;;;;0.30;0.30;;;7.40;99.90;;;;;;4944491;28;20965;-83
2022/11/16 07:45:28;;;;;;;0.30;0.30;;;7.40;99.90;;;;;;4941323;28;20194;-84
2022/11/16 07:47:53;;;;;;;0.30;0.30;;;7.40;99.90;;;;;;4955081;28;20761;-84
2022/11/16 07:50:19;;;;;;;0.30;0.30;;;7.40;99.90;;;;;;4946884;29;20593;-83
2022/11/16 07:52:45;;;;;;;0.30;0.30;;;7.50;99.90;;;;;;4946873;29;20195;-84
2022/11/16 07:55:11;;;;;;;0.30;0.30;;;7.50;99.90;;;;;;4952721;28;20194;-84
2022/11/16 07:57:37;;;;;;;0.30;0.30;;;7.50;99.90;;;;;;4947200;29;21052;-84
2022/11/16 08:00:04;;;;;;;0.23;0.23;;;7.50;99.90;;;;;;4939487;28;20550;-84
2022/11/16 08:02:29;;;;;;;0.30;0.30;;;7.50;99.90;;;;;;4952576;28;20190;-84
2022/11/16 08:04:55;;;;;;;0.30;0.30;;;7.50;99.90;;;;;;4951631;28;20445;-84
2022/11/16 08:07:20;;;;;;;0.30;0.30;;;7.50;99.90;;;;;;4942884;28;20686;-85
2022/11/16 08:09:46;;;;;;;0.30;0.30;;;7.50;99.90;;;;;;4945541;28;20681;-84
2022/11/16 08:12:12;;;;;;;0.30;0.30;;;7.50;99.90;;;;;;4952423;28;20273;-85
2022/11/16 08:14:37;;;;;;;0.30;0.30;;;7.60;99.90;;;;;;4946719;28;20244;-85
2022/11/16 08:17:03;;;;;;;0.30;0.30;;;7.60;99.90;;;;;;4948018;29;21027;-84
2022/11/16 08:19:29;;;;;;;0.30;0.30;;;7.60;99.90;;;;;;4941095;28;20615;-84
2022/11/16 08:21:54;;;;;;;0.30;0.30;;;7.60;99.90;;;;;;4954336;28;20467;-84
2022/11/16 08:24:20;;;;;;;0.30;0.30;;;7.60;99.90;;;;;;4942524;28;20220;-83
2022/11/16 08:26:45;;;;;;;0.23;0.23;;;7.60;99.90;;;;;;4961315;28;20222;-85
2022/11/16 08:29:11;;;;;;;0.30;0.30;;;7.60;99.90;;;;;;4960708;28;20619;-84
2022/11/16 08:31:37;;;;;;;0.30;0.30;;;7.60;99.90;;;;;;4955576;28;20206;-84
2022/11/16 08:34:02;;;;;;;0.27;0.27;;;7.60;99.90;;;;;;4948593;28;20529;-84
2022/11/16 08:36:28;;;;;;;0.30;0.30;;;7.70;99.90;;;;;;4948752;28;20207;-86
2022/11/16 08:38:53;;;;;;;0.30;0.30;;;7.70;99.90;;;;;;4949179;28;20639;-86
2022/11/16 08:41:21;;;;;;;0.30;0.30;;;7.70;99.90;;;;;;4955356;28;20558;-86
2022/11/16 08:43:49;;;;;;;0.30;0.30;;;7.70;99.90;;;;;;4947753;28;20195;-85
2022/11/16 08:46:14;;;;;;;0.30;0.30;;;7.70;99.90;;;;;;4956465;28;20480;-85
2022/11/16 08:48:40;;;;;;;0.30;0.30;;;7.70;99.90;;;;;;4948179;28;20462;-85
2022/11/16 08:51:08;;;;;;;0.30;0.30;;;7.80;99.90;;;;;;4949152;28;20276;-87
2022/11/16 08:53:33;;;;;;;0.30;0.30;;;7.80;99.90;;;;;;4959995;28;20190;-84
2022/11/16 08:56:08;;;;;;;0.30;0.30;;;7.90;99.90;;;;;;4951954;28;20795;-84
2022/11/16 08:58:34;;;;;;;0.30;0.30;;;7.90;99.90;;;;;;4947721;28;20771;-85
2022/11/16 09:01:08;;;;;;;0.30;0.30;;;7.90;99.90;;;;;;4952458;28;20482;-86
2022/11/16 09:03:34;;;;;;;0.30;0.30;;;7.90;99.90;;;;;;4958141;28;20529;-85
2022/11/16 09:05:59;;;;;;;0.30;0.30;;;7.90;99.90;;;;;;4951523;28;20576;-86
2022/11/16 09:08:25;;;;;;;0.20;0.20;;;7.90;99.90;;;;;;4959061;28;20203;-85
2022/11/16 09:10:50;;;;;;;0.30;0.30;;;7.90;99.90;;;;;;4955731;28;20199;-85
2022/11/16 09:13:16;;;;;;;0.30;0.30;;;7.90;99.90;;;;;;4955528;28;20637;-86
2022/11/16 09:15:41;;;;;;;0.30;0.30;;;7.90;99.90;;;;;;4966052;28;20224;-84
2022/11/16 09:18:07;;;;;;;0.30;0.30;;;7.90;99.90;;;;;;4949591;28;20197;-86
2022/11/16 09:20:32;;;;;;;0.30;0.30;;;7.90;99.90;;;;;;4946232;28;20282;-86
2022/11/16 09:22:58;;;;;;;0.30;0.30;;;7.90;99.90;;;;;;4952100;28;20241;-84
2022/11/16 09:25:23;;;;;;;0.30;0.30;;;7.90;99.90;;;;;;4954355;28;20183;-85
2022/11/16 09:27:49;;;;;;;0.30;0.30;;;7.90;99.90;;;;;;4959766;28;20222;-84
2022/11/16 09:30:16;;;;;;;0.30;0.30;;;7.90;99.90;;;;;;4951129;28;20186;-84
2022/11/16 09:32:41;;;;;;;0.30;0.30;;;8.00;99.90;;;;;;4953687;28;20194;-84
2022/11/16 09:35:07;;;;;;;0.30;0.30;;;8.00;99.90;;;;;;4948676;28;20452;-83
2022/11/16 09:37:33;;;;;;;0.30;0.30;;;8.00;99.90;;;;;;4949275;28;20214;-85
2022/11/16 09:39:58;;;;;;;0.30;0.30;;;8.00;99.90;;;;;;4948146;28;20478;-85
2022/11/16 09:42:35;;;;;;;0.20;0.20;;;8.00;99.90;;;;;;4950337;28;20927;-85
2022/11/16 09:45:16;;;;;;;0.20;0.20;;;8.00;99.90;;;;;;4946232;28;20174;-85
2022/11/16 09:47:52;;;;;;;0.20;0.20;;;7.90;99.90;;;;;;4948861;28;20906;-83
2022/11/16 09:50:48;;;;;;;0.30;0.30;;;7.90;99.90;;;;;;4956371;28;20451;-82
2022/11/16 09:53:36;;;;;;;0.27;0.27;;;7.90;99.90;;;;;;4949748;28;20450;-85
2022/11/16 09:56:06;;;;;;;0.20;0.20;;;7.90;99.90;;;;;;4949508;28;20466;-84
2022/11/16 09:59:02;;;;;;;0.30;0.30;;;7.90;99.90;;;;;;4948788;28;20954;-85
2022/11/16 10:01:47;;;;;;;0.30;0.30;;;7.90;99.90;;;;;;4956660;28;20454;-85
2022/11/16 10:04:37;;;;;;;0.30;0.30;;;7.90;99.90;;;;;;4948493;28;20446;-85
2022/11/16 10:07:19;;;;;;;0.30;0.30;;;7.90;99.90;;;;;;4954720;28;20486;-84
2022/11/16 10:09:46;;;;;;;0.20;0.20;;;7.90;99.90;;;;;;4966171;28;20477;-84
2022/11/16 10:12:17;;;;;;;0.20;0.20;;;8.00;99.90;;;;;;4956794;28;20458;-86
2022/11/16 10:15:08;;;;;;;0.30;0.30;;;7.90;99.90;;;;;;4946365;28;20450;-86
2022/11/16 10:17:53;;;;;;;0.30;0.30;;;8.00;99.90;;;;;;4968111;28;20458;-83
2022/11/16 10:20:32;;;;;;;0.30;0.30;;;8.00;99.90;;;;;;4953900;28;20534;-86
2022/11/16 10:23:20;;;;;;;0.30;0.30;;;8.00;99.90;;;;;;4951516;28;20498;-87
2022/11/16 10:26:09;;;;;;;0.30;0.30;;;8.00;99.90;;;;;;4958290;28;20952;-87
2022/11/16 10:29:11;;;;;;;0.30;0.30;;;8.00;99.90;;;;;;4969056;28;20528;-86
2022/11/16 10:32:02;;;;;;;0.30;0.30;;;8.00;99.90;;;;;;4945416;28;20449;-86
2022/11/16 10:34:39;;;;;;;0.30;0.30;;;8.00;99.90;;;;;;4957608;28;20488;-84
2022/11/16 10:37:07;;;;;;;0.30;0.30;;;8.00;99.90;;;;;;4947824;28;20968;-85
2022/11/16 10:39:35;;;;;;;0.30;0.30;;;8.00;99.90;;;;;;4952779;28;21104;-86
2022/11/16 10:42:04;;;;;;;0.30;0.30;;;8.00;99.90;;;;;;4947129;28;20486;-86
2022/11/16 10:45:16;;;;;;;0.30;0.30;;;8.00;99.90;;;;;;4946027;28;20493;-85
2022/11/16 10:48:02;;;;;;;0.30;0.30;;;8.00;99.90;;;;;;4989057;28;20491;-85
2022/11/16 10:50:39;;;;;;;0.30;0.30;;;8.00;99.90;;;;;;4947330;28;20442;-85
2022/11/16 10:53:05;;;;;;;0.30;0.30;;;8.00;99.90;;;;;;4948507;28;20453;-86
2022/11/16 10:55:31;;;;;;;0.30;0.30;;;8.00;99.90;;;;;;4931210;29;22470;-85
2022/11/16 10:57:56;;;;;;;0.20;0.20;;;7.90;99.90;;;;;;4936353;29;20529;-87
2022/11/16 11:00:46;;;;;;;0.30;0.30;;;8.00;99.90;;;;;;4955408;28;20259;-86
2022/11/16 11:03:11;;;;;;;0.30;0.30;;;8.00;99.90;;;;;;4963197;28;20198;-86
2022/11/16 11:05:51;;;;;;;0.30;0.30;;;7.90;99.90;;;;;;4949317;29;20435;-87
2022/11/16 11:08:25;;;;;;;0.30;0.30;;;7.90;99.90;;;;;;4948127;28;20193;-86
2022/11/16 11:11:02;;;;;;;0.30;0.30;;;7.90;99.90;;;;;;4946402;28;20469;-86
2022/11/16 11:13:27;;;;;;;0.30;0.30;;;7.90;99.90;;;;;;4935091;29;20678;-86
2022/11/16 11:16:13;;;;;;;0.20;0.20;;;7.90;99.90;;;;;;4944719;28;20454;-87
2022/11/16 11:18:39;;;;;;;0.30;0.30;;;7.90;99.90;;;;;;4948111;28;20217;-85
2022/11/16 11:21:17;;;;;;;0.30;0.30;;;7.90;99.90;;;;;;4945254;28;20446;-85
2022/11/16 11:23:49;;;;;;;0.30;0.30;;;7.90;99.90;;;;;;4948772;28;20647;-87
2022/11/16 11:26:36;;;;;;;0.30;0.30;;;7.90;99.90;;;;;;4946459;28;20521;-85
2022/11/16 11:29:15;;;;;;;0.30;0.30;;;7.90;99.90;;;;;;4948728;29;21070;-86
2022/11/16 11:31:48;;;;;;;0.30;0.30;;;7.90;99.90;;;;;;4944888;28;20529;-86
2022/11/16 11:34:16;;;;;;;0.30;0.30;;;7.90;99.90;;;;;;4948476;28;20458;-83
2022/11/16 11:36:53;;;;;;;0.30;0.30;;;7.90;99.90;;;;;;4948364;28;20503;-85
2022/11/16 11:39:19;;;;;;;0.30;0.30;;;7.90;99.90;;;;;;4944561;28;20556;-86
2022/11/16 11:41:59;;;;;;;0.30;0.30;;;7.90;99.90;;;;;;4948505;29;20518;-86
2022/11/16 11:44:34;;;;;;;0.30;0.30;;;7.90;99.90;;;;;;4943342;28;20200;-86
2022/11/16 11:47:36;;;;;;;0.30;0.30;;;7.90;99.90;;;;;;4946897;28;20489;-86
2022/11/16 11:50:18;;;;;;;0.30;0.30;;;7.90;99.90;;;;;;4941779;28;20536;-86
2022/11/16 11:53:10;;;;;;;0.30;0.30;;;7.80;99.90;;;;;;4947151;28;20516;-86
2022/11/16 11:55:36;;;;;;;0.30;0.30;;;7.80;99.90;;;;;;4944391;28;20535;-87
2022/11/16 11:58:04;;;;;;;0.30;0.30;;;7.80;99.90;;;;;;4946403;28;20450;-86
2022/11/16 12:00:42;;;;;;;0.30;0.30;;;7.80;99.90;;;;;;4941218;28;20606;-86
2022/11/16 12:03:33;;;;;;;0.30;0.30;;;7.80;99.90;;;;;;4947728;29;20423;-86
2022/11/16 12:06:36;;;;;;;0.30;0.30;;;7.80;99.90;;;;;;4947640;28;20951;-86
2022/11/16 12:09:31;;;;;;;0.30;0.30;;;7.70;99.90;;;;;;4949421;28;20623;-86
2022/11/16 12:12:08;;;;;;;0.30;0.30;;;7.70;99.90;;;;;;4949337;28;20449;-87
2022/11/16 12:14:48;;;;;;;0.30;0.30;;;7.70;99.90;;;;;;4942730;28;20527;-88
2022/11/16 12:17:37;;;;;;;0.30;0.30;;;7.70;99.90;;;;;;4941576;28;20508;-83
2022/11/16 12:20:24;;;;;;;0.30;0.30;;;7.70;99.90;;;;;;4940013;28;20446;-89
2022/11/16 12:23:18;;;;;;;0.30;0.30;;;7.70;99.90;;;;;;4946279;28;20469;-86
2022/11/16 12:25:46;;;;;;;0.30;0.30;;;7.70;99.90;;;;;;4941486;28;20449;-85
2022/11/16 12:28:36;;;;;;;0.30;0.30;;;7.70;99.90;;;;;;4950358;28;20458;-85
2022/11/16 12:31:20;;;;;;;0.30;0.30;;;7.70;99.90;;;;;;4933023;29;20951;-86
2022/11/16 12:34:20;;;;;;;0.20;0.20;;;7.70;99.90;;;;;;4958498;28;20492;-89
2022/11/16 12:37:19;;;;;;;0.20;0.20;;;7.70;99.90;;;;;;4953241;28;20455;-87
2022/11/16 12:40:26;;;;;;;0.30;0.30;;;7.70;99.90;;;;;;4945755;28;20477;-86
2022/11/16 12:42:59;;;;;;;0.30;0.30;;;7.70;99.90;;;;;;4983967;28;20840;-86
2022/11/16 12:46:00;;;;;;;0.30;0.30;;;7.60;99.90;;;;;;4949850;28;20450;-91
2022/11/16 12:48:50;;;;;;;0.30;0.30;;;7.70;99.90;;;;;;4945110;28;20541;-92
2022/11/16 12:51:22;;;;;;;0.30;0.30;;;7.60;99.90;;;;;;4946482;28;20443;-88
2022/11/16 12:53:50;;;;;;;0.30;0.30;;;7.60;99.90;;;;;;4951123;28;20458;-88
2022/11/16 12:56:24;;;;;;;0.30;0.30;;;7.70;99.90;;;;;;4953403;28;20962;-88
2022/11/16 12:59:11;;;;;;;0.30;0.30;;;7.70;99.90;;;;;;4938025;28;20889;-85
2022/11/16 13:01:54;;;;;;;0.20;0.20;;;7.70;99.90;;;;;;4950481;28;20465;-87
2022/11/16 13:04:33;;;;;;;0.30;0.30;;;7.70;99.90;;;;;;4949220;28;20533;-86
2022/11/16 13:07:07;;;;;;;0.30;0.30;;;7.70;99.90;;;;;;4951161;28;20482;-88
2022/11/16 13:09:37;;;;;;;0.30;0.30;;;7.70;99.90;;;;;;4956025;28;20525;-89
2022/11/16 13:12:06;;;;;;;0.30;0.30;;;7.70;99.90;;;;;;4951884;28;20533;-88
2022/11/16 13:14:42;;;;;;;0.30;0.30;;;7.70;99.90;;;;;;4951444;28;20445;-85
2022/11/16 13:17:16;;;;;;;0.30;0.30;;;7.70;99.90;;;;;;4947329;28;20825;-87
2022/11/16 13:19:47;;;;;;;0.30;0.30;;;7.70;99.90;;;;;;4949410;28;20441;-87
2022/11/16 13:22:22;;;;;;;0.30;0.30;;;7.70;99.90;;;;;;4945831;28;21068;-83
2022/11/16 13:24:58;;;;;;;0.20;0.20;;;7.60;99.90;;;;;;4952888;28;20887;-84
2022/11/16 13:27:48;;;;;;;0.30;0.30;;;7.60;99.90;;;;;;4955366;28;20846;-85
2022/11/16 13:30:28;;;;;;;0.30;0.30;;;7.50;99.90;;;;;;4953903;28;20454;-85
2022/11/16 13:33:27;;;;;;;0.30;0.30;;;7.50;99.90;;;;;;4958840;28;20449;-85
2022/11/16 13:35:53;;;;;;;0.20;0.20;;;7.50;99.90;;;;;;4952276;28;20449;-86
2022/11/16 13:38:51;;;;;;;0.30;0.30;;;7.50;99.90;;;;;;4962265;28;20478;-84
2022/11/16 13:41:35;;;;;;;0.30;0.30;;;7.50;99.90;;;;;;4937275;28;20663;-85
2022/11/16 13:44:04;;;;;;;0.30;0.30;;;7.50;99.90;;;;;;4946224;28;20900;-86
2022/11/16 13:46:44;;;;;;;0.30;0.30;;;7.50;99.90;;;;;;4941073;28;21052;-85
2022/11/16 13:49:32;;;;;;;0.20;0.20;;;7.50;99.90;;;;;;4942037;28;20438;-85
2022/11/16 13:52:09;;;;;;;0.30;0.30;;;7.50;99.90;;;;;;4954872;28;20541;-85
2022/11/16 13:54:39;;;;;;;0.30;0.30;;;7.50;99.90;;;;;;4945629;28;20533;-88
2022/11/16 13:57:22;;;;;;;0.30;0.30;;;7.50;99.90;;;;;;4947348;28;20558;-85
2022/11/16 14:00:02;;;;;;;0.30;0.30;;;7.50;99.90;;;;;;4946995;28;20802;-86
2022/11/16 14:02:41;;;;;;;0.30;0.30;;;7.50;99.90;;;;;;4947034;28;20449;-86
2022/11/16 14:05:35;;;;;;;0.20;0.20;;;7.50;99.90;;;;;;4947807;28;20442;-85